createdAt,value
2018-04-26T00:01:03.913Z,7.40
2018-04-26T00:03:31.364Z,7.40
2018-04-26T00:05:59.243Z,7.40
2018-04-26T00:08:26.703Z,7.40
2018-04-26T00:10:54.165Z,7.50
2018-04-26T00:13:21.615Z,7.70
2018-04-26T00:15:49.073Z,8.00
2018-04-26T00:18:17.080Z,8.10
2018-04-26T00:20:44.806Z,8.20
2018-04-26T00:23:12.261Z,8.30
2018-04-26T00:25:39.711Z,8.20
2018-04-26T00:28:07.157Z,8.20
2018-04-26T00:30:35.036Z,8.10
2018-04-26T00:33:02.477Z,8.00
2018-04-26T00:35:29.928Z,8.00
2018-04-26T00:37:57.387Z,7.90
2018-04-26T00:40:26.155Z,7.90
2018-04-26T00:42:53.609Z,7.90
2018-04-26T00:45:22.229Z,7.90
2018-04-26T00:47:50.207Z,7.90
2018-04-26T00:50:17.677Z,7.80
2018-04-26T00:52:46.758Z,7.80
2018-04-26T00:55:14.654Z,7.70
2018-04-26T00:57:42.880Z,7.40
2018-04-26T01:00:10.373Z,7.40
2018-04-26T01:02:38.855Z,7.20
2018-04-26T01:05:07.047Z,7.10
2018-04-26T01:07:36.107Z,6.70
2018-04-26T01:10:03.581Z,6.70
2018-04-26T01:12:31.801Z,6.30
2018-04-26T01:15:01.852Z,6.30
2018-04-26T01:17:29.291Z,6.10
2018-04-26T01:19:56.797Z,6.00
2018-04-26T01:22:24.212Z,5.80
2018-04-26T01:24:51.673Z,5.70
2018-04-26T01:27:19.113Z,5.60
2018-04-26T01:29:46.589Z,5.60
2018-04-26T01:32:14.238Z,5.50
2018-04-26T01:34:42.460Z,5.40
2018-04-26T01:37:29.325Z,5.30
2018-04-26T01:39:56.781Z,5.20
2018-04-26T01:42:24.224Z,5.20
2018-04-26T01:44:51.696Z,5.20
2018-04-26T01:47:19.141Z,5.10
2018-04-26T02:33:27.996Z,5.00
2018-04-26T02:35:55.435Z,4.80
2018-04-26T02:38:22.912Z,4.70
2018-04-26T02:40:51.178Z,4.60
2018-04-26T02:43:21.187Z,4.60
2018-04-26T02:45:48.656Z,4.60
2018-04-26T02:48:16.533Z,4.60
2018-04-26T02:50:45.145Z,4.50
2018-04-26T02:53:13.296Z,4.50
2018-04-26T02:55:41.776Z,4.40
2018-04-26T02:58:09.997Z,4.40
2018-04-26T03:00:37.461Z,4.30
2018-04-26T03:03:04.912Z,4.30
2018-04-26T03:05:32.360Z,4.40
2018-04-26T03:07:59.808Z,4.40
2018-04-26T03:10:27.269Z,4.50
2018-04-26T03:12:54.720Z,4.40
2018-04-26T03:15:22.177Z,4.40
2018-04-26T03:17:52.334Z,4.30
2018-04-26T03:20:19.784Z,4.30
2018-04-26T03:22:47.232Z,4.20
2018-04-26T03:25:15.596Z,4.30
2018-04-26T03:27:43.072Z,4.20
2018-04-26T03:30:10.528Z,4.20
2018-04-26T03:32:37.970Z,4.10
2018-04-26T03:35:05.452Z,4.20
2018-04-26T03:37:32.945Z,4.20
2018-04-26T03:40:01.157Z,4.50
2018-04-26T03:42:28.619Z,4.40
2018-04-26T03:44:56.059Z,4.50
2018-04-26T03:47:23.522Z,4.50
2018-04-26T03:49:50.976Z,4.50
2018-04-26T03:52:18.442Z,4.50
2018-04-26T03:54:45.887Z,4.60
2018-04-26T03:57:13.334Z,4.60
2018-04-26T04:02:55.727Z,4.80
2018-04-26T04:05:36.835Z,4.80
2018-04-26T04:08:04.777Z,4.90
2018-04-26T04:10:32.226Z,4.90
2018-04-26T04:12:59.672Z,4.90
2018-04-26T04:15:27.129Z,4.90
2018-04-26T04:17:54.685Z,4.90
2018-04-26T04:20:22.140Z,5.00
2018-04-26T04:22:49.587Z,5.10
2018-04-26T04:25:17.041Z,5.30
2018-04-26T04:27:44.903Z,5.50
2018-04-26T04:30:12.363Z,5.60
2018-04-26T04:32:39.816Z,5.70
2018-04-26T04:35:07.275Z,5.70
2018-04-26T04:37:34.737Z,5.70
2018-04-26T04:40:02.187Z,5.80
2018-04-26T04:42:29.644Z,5.80
2018-04-26T04:44:57.108Z,5.70
2018-04-26T04:47:24.564Z,5.70
2018-04-26T04:49:52.473Z,5.70
2018-04-26T04:52:20.751Z,5.80
2018-04-26T04:54:48.979Z,5.90
2018-04-26T04:57:16.435Z,5.80
2018-04-26T04:59:43.893Z,5.90
2018-04-26T05:02:12.257Z,5.90
2018-04-26T05:04:39.709Z,6.00
2018-04-26T05:07:07.170Z,6.10
2018-04-26T05:09:35.629Z,6.10
2018-04-26T05:12:03.076Z,6.30
2018-04-26T05:14:33.099Z,6.40
2018-04-26T05:17:00.546Z,6.50
2018-04-26T05:19:28.761Z,6.80
2018-04-26T05:21:56.945Z,6.70
2018-04-26T05:24:24.399Z,6.90
2018-04-26T05:26:52.761Z,7.10
2018-04-26T05:29:21.069Z,7.10
2018-04-26T05:31:48.604Z,7.20
2018-04-26T05:34:16.065Z,7.40
2018-04-26T05:36:44.161Z,7.60
2018-04-26T05:39:11.669Z,7.60
2018-04-26T05:41:39.768Z,7.80
2018-04-26T05:44:07.365Z,8.50
2018-04-26T05:46:37.356Z,9.80
2018-04-26T05:49:04.812Z,10.90
2018-04-26T05:51:32.339Z,11.90
2018-04-26T05:53:59.783Z,12.90
2018-04-26T05:56:27.691Z,13.50
2018-04-26T05:58:55.149Z,13.90
2018-04-26T06:01:22.605Z,14.10
2018-04-26T06:03:50.703Z,14.30
2018-04-26T06:06:18.553Z,14.50
2018-04-26T06:08:46.000Z,14.90
2018-04-26T06:11:13.469Z,15.20
2018-04-26T06:13:41.500Z,15.20
2018-04-26T06:16:09.728Z,15.20
2018-04-26T06:18:37.169Z,15.40
2018-04-26T06:21:04.627Z,15.80
2018-04-26T06:23:32.556Z,16.10
2018-04-26T06:26:00.868Z,16.00
2018-04-26T06:28:28.608Z,15.60
2018-04-26T06:30:56.502Z,15.60
2018-04-26T06:33:23.952Z,15.70
2018-04-26T06:35:51.404Z,15.70
2018-04-26T06:38:18.862Z,15.80
2018-04-26T06:40:46.691Z,16.00
2018-04-26T06:43:14.155Z,15.90
2018-04-26T06:45:42.163Z,15.70
2018-04-26T06:48:09.615Z,15.60
2018-04-26T06:50:37.844Z,15.70
2018-04-26T06:53:05.294Z,15.70
2018-04-26T06:55:32.753Z,16.00
2018-04-26T06:58:00.861Z,16.30
2018-04-26T07:00:28.322Z,15.90
2018-04-26T07:02:55.782Z,16.00
2018-04-26T07:05:24.009Z,15.70
2018-04-26T07:07:52.041Z,15.70
2018-04-26T07:10:20.128Z,15.70
2018-04-26T07:12:47.811Z,15.60
2018-04-26T07:15:15.268Z,15.70
2018-04-26T07:17:42.728Z,16.00
2018-04-26T07:20:10.220Z,16.60
2018-04-26T07:22:38.559Z,16.70
2018-04-26T07:25:06.773Z,16.40
2018-04-26T07:27:34.231Z,16.30
2018-04-26T07:30:01.684Z,15.90
2018-04-26T07:32:29.159Z,15.50
2018-04-26T07:34:56.692Z,15.50
2018-04-26T07:37:24.063Z,15.30
2018-04-26T07:39:52.775Z,14.90
2018-04-26T07:42:22.435Z,14.50
2018-04-26T07:44:49.969Z,15.10
2018-04-26T07:47:17.352Z,16.30
2018-04-26T07:49:44.809Z,17.10
2018-04-26T07:52:12.261Z,16.90
2018-04-26T07:54:39.717Z,16.90
2018-04-26T07:57:07.173Z,15.60
2018-04-26T07:59:34.632Z,14.70
2018-04-26T08:02:02.092Z,14.50
2018-04-26T08:04:29.715Z,14.20
2018-04-26T08:06:57.940Z,15.30
2018-04-26T08:09:25.800Z,15.30
2018-04-26T08:11:53.250Z,15.90
2018-04-26T08:14:20.709Z,16.60
2018-04-26T08:16:48.153Z,16.40
2018-04-26T08:19:15.610Z,16.10
2018-04-26T08:21:43.068Z,16.20
2018-04-26T08:24:11.320Z,16.10
2018-04-26T08:26:39.543Z,15.00
2018-04-26T08:29:07.514Z,15.00
2018-04-26T08:31:34.954Z,15.10
2018-04-26T08:34:02.408Z,15.30
2018-04-26T08:36:29.907Z,16.30
2018-04-26T08:38:57.348Z,17.30
2018-04-26T08:41:24.804Z,16.90
2018-04-26T08:43:52.276Z,15.90
2018-04-26T08:46:19.731Z,15.50
2018-04-26T08:48:47.180Z,15.10
2018-04-26T08:51:15.261Z,14.60
2018-04-26T08:53:42.709Z,14.70
2018-04-26T08:56:10.172Z,14.80
2018-04-26T08:58:38.140Z,14.80
2018-04-26T09:01:05.598Z,15.00
2018-04-26T09:03:33.091Z,15.10
2018-04-26T09:06:01.976Z,14.30
2018-04-26T09:08:30.571Z,14.70
2018-04-26T09:10:58.777Z,15.20
2018-04-26T09:13:26.223Z,15.10
2018-04-26T09:15:54.455Z,15.40
2018-04-26T09:18:21.929Z,15.40
2018-04-26T09:20:50.162Z,16.00
2018-04-26T09:23:17.623Z,15.90
2018-04-26T09:25:45.476Z,16.50
2018-04-26T09:28:13.482Z,16.50
2018-04-26T09:30:42.035Z,16.60
2018-04-26T09:33:09.497Z,16.60
2018-04-26T09:35:36.952Z,15.90
2018-04-26T09:38:05.644Z,16.20
2018-04-26T09:40:33.092Z,16.30
2018-04-26T09:43:00.543Z,16.70
2018-04-26T09:45:28.417Z,17.10
2018-04-26T09:47:58.375Z,16.90
2018-04-26T09:50:26.591Z,16.80
2018-04-26T09:52:54.032Z,16.80
2018-04-26T09:55:21.508Z,17.50
2018-04-26T09:57:48.947Z,17.80
2018-04-26T10:00:22.158Z,17.60
2018-04-26T10:02:49.599Z,17.70
2018-04-26T10:05:17.228Z,17.80
2018-04-26T10:07:45.435Z,15.90
2018-04-26T10:10:15.555Z,15.80
2018-04-26T10:12:43.007Z,15.30
2018-04-26T10:15:10.996Z,15.70
2018-04-26T10:17:38.502Z,16.30
2018-04-26T10:20:06.716Z,16.30
2018-04-26T10:22:34.930Z,16.20
2018-04-26T10:25:02.695Z,17.20
2018-04-26T10:27:30.625Z,17.80
2018-04-26T10:29:58.742Z,18.40
2018-04-26T10:32:26.210Z,18.60
2018-04-26T10:34:54.444Z,18.30
2018-04-26T10:37:22.260Z,18.30
2018-04-26T10:39:50.489Z,18.30
2018-04-26T10:42:17.946Z,18.30
2018-04-26T10:44:45.391Z,18.30
2018-04-26T10:47:13.370Z,18.60
2018-04-26T10:49:41.420Z,18.20
2018-04-26T10:52:08.865Z,17.90
2018-04-26T10:54:36.321Z,17.90
2018-04-26T10:57:04.227Z,18.00
2018-04-26T10:59:32.483Z,18.40
2018-04-26T11:02:00.191Z,18.80
2018-04-26T11:04:28.423Z,19.00
2018-04-26T11:06:56.427Z,19.00
2018-04-26T11:09:24.648Z,17.80
2018-04-26T11:11:52.507Z,17.70
2018-04-26T11:14:20.011Z,17.60
2018-04-26T11:16:48.443Z,17.50
2018-04-26T11:19:16.597Z,17.60
2018-04-26T11:21:44.285Z,17.50
2018-04-26T11:24:12.189Z,17.10
2018-04-26T11:26:39.645Z,17.20
2018-04-26T11:29:07.116Z,17.60
2018-04-26T11:31:34.568Z,17.80
2018-04-26T11:34:02.025Z,17.50
2018-04-26T11:36:29.471Z,17.80
2018-04-26T11:38:56.931Z,18.40
2018-04-26T11:41:24.431Z,18.60
2018-04-26T11:43:52.135Z,18.50
2018-04-26T11:46:19.587Z,17.80
2018-04-26T11:48:47.089Z,17.40
2018-04-26T11:51:15.306Z,18.00
2018-04-26T11:53:42.865Z,18.00
2018-04-26T11:56:10.323Z,18.20
2018-04-26T11:58:37.773Z,18.50
2018-04-26T12:01:05.239Z,18.30
2018-04-26T12:03:33.308Z,18.60
2018-04-26T12:06:01.214Z,18.00
2018-04-26T12:08:28.668Z,18.00
2018-04-26T12:10:56.125Z,18.10
2018-04-26T12:13:23.579Z,18.60
2018-04-26T12:15:51.667Z,19.50
2018-04-26T12:18:19.685Z,19.60
2018-04-26T12:20:47.944Z,19.50
2018-04-26T12:23:15.391Z,19.30
2018-04-26T12:25:42.862Z,18.70
2018-04-26T12:28:10.302Z,18.50
2018-04-26T12:30:38.534Z,17.70
2018-04-26T12:33:05.976Z,17.70
2018-04-26T12:35:33.436Z,17.50
2018-04-26T12:38:01.127Z,17.20
2018-04-26T12:40:29.016Z,16.80
2018-04-26T12:42:57.541Z,16.60
2018-04-26T12:45:24.992Z,16.60
2018-04-26T12:47:52.448Z,16.90
2018-04-26T12:50:19.999Z,17.70
2018-04-26T12:52:47.799Z,18.00
2018-04-26T12:55:15.568Z,17.70
2018-04-26T12:57:43.046Z,17.50
2018-04-26T13:00:10.494Z,17.00
2018-04-26T13:02:38.520Z,16.60
2018-04-26T13:05:06.007Z,16.50
2018-04-26T13:07:33.425Z,16.90
2018-04-26T13:10:01.325Z,16.90
2018-04-26T13:12:28.779Z,16.80
2018-04-26T13:14:56.253Z,17.40
2018-04-26T13:17:23.769Z,18.30
2018-04-26T13:19:51.201Z,19.00
2018-04-26T13:22:19.969Z,19.00
2018-04-26T13:24:47.413Z,17.90
2018-04-26T13:27:14.881Z,17.70
2018-04-26T13:29:42.885Z,17.90
2018-04-26T13:32:10.359Z,18.30
2018-04-26T13:34:37.816Z,18.90
2018-04-26T13:37:06.190Z,19.40
2018-04-26T13:39:33.648Z,19.20
2018-04-26T13:42:01.100Z,19.00
2018-04-26T13:44:28.592Z,19.90
2018-04-26T13:46:56.053Z,20.20
2018-04-26T13:49:23.520Z,20.70
2018-04-26T13:51:51.018Z,20.50
2018-04-26T13:54:19.240Z,21.10
2018-04-26T13:56:46.719Z,21.10
2018-04-26T13:59:16.370Z,20.60
2018-04-26T14:01:44.749Z,21.20
2018-04-26T14:04:12.504Z,21.20
2018-04-26T14:06:41.485Z,21.40
2018-04-26T14:09:08.965Z,21.40
2018-04-26T14:11:36.429Z,21.80
2018-04-26T14:14:04.338Z,21.50
2018-04-26T14:16:31.800Z,21.10
2018-04-26T14:19:00.030Z,20.90
2018-04-26T14:21:27.509Z,20.80
2018-04-26T14:23:55.396Z,19.90
2018-04-26T14:26:23.073Z,18.90
2018-04-26T14:28:51.241Z,19.70
2018-04-26T14:31:19.105Z,20.40
2018-04-26T14:33:47.048Z,19.80
2018-04-26T14:36:14.536Z,20.80
2018-04-26T14:38:42.447Z,20.50
2018-04-26T14:41:09.920Z,20.70
2018-04-26T14:43:39.293Z,20.70
2018-04-26T14:46:08.217Z,19.80
2018-04-26T14:48:35.672Z,19.80
2018-04-26T14:51:03.148Z,20.80
2018-04-26T14:53:30.642Z,21.40
2018-04-26T14:55:58.126Z,21.10
2018-04-26T14:58:25.589Z,21.50
2018-04-26T15:00:53.126Z,21.70
2018-04-26T15:03:20.608Z,21.80
2018-04-26T15:05:48.097Z,21.70
2018-04-26T15:08:16.056Z,21.80
2018-04-26T15:10:44.031Z,21.80
2018-04-26T15:13:12.049Z,21.90
2018-04-26T15:15:40.290Z,22.60
2018-04-26T15:18:07.750Z,22.50
2018-04-26T15:20:35.211Z,22.50
2018-04-26T15:23:02.669Z,22.50
2018-04-26T15:25:30.147Z,22.70
2018-04-26T15:27:57.596Z,22.40
2018-04-26T15:30:25.177Z,21.90
2018-04-26T15:32:53.416Z,21.30
2018-04-26T15:35:29.758Z,21.30
2018-04-26T15:37:58.102Z,22.00
2018-04-26T15:40:26.565Z,21.70
2018-04-26T15:42:54.062Z,21.70
2018-04-26T15:45:21.693Z,22.30
2018-04-26T15:47:50.994Z,22.70
2018-04-26T15:50:30.461Z,22.90
2018-04-26T15:53:09.836Z,22.30
2018-04-26T15:55:49.170Z,22.20
2018-04-26T16:01:33.893Z,19.00
2018-04-26T16:04:14.227Z,18.00
2018-04-26T16:06:53.504Z,18.00
2018-04-26T16:09:33.531Z,17.50
2018-04-26T16:12:13.125Z,16.70
2018-04-26T16:14:52.594Z,16.50
2018-04-26T16:20:52.235Z,16.60
2018-04-26T16:23:37.291Z,16.60
2018-04-26T16:26:16.712Z,16.30
2018-04-26T16:29:02.025Z,16.00
2018-04-26T16:31:48.071Z,16.50
2018-04-26T16:34:28.077Z,16.50
2018-04-26T16:37:07.826Z,18.00
2018-04-26T16:39:36.092Z,19.10
2018-04-26T16:42:04.345Z,18.80
2018-04-26T16:44:32.547Z,18.80
2018-04-26T16:47:00.179Z,17.80
2018-04-26T16:49:28.043Z,16.90
2018-04-26T16:51:55.519Z,16.60
2018-04-26T16:54:24.187Z,16.10
2018-04-26T16:56:52.466Z,16.10
2018-04-26T16:59:19.976Z,16.50
2018-04-26T17:01:47.452Z,17.60
2018-04-26T17:04:15.004Z,18.60
2018-04-26T17:06:42.390Z,18.90
2018-04-26T17:09:10.221Z,18.90
2018-04-26T17:11:37.732Z,19.30
2018-04-26T17:14:06.000Z,18.30
2018-04-26T17:16:33.504Z,18.20
2018-04-26T17:19:00.986Z,18.00
2018-04-26T17:21:28.424Z,17.50
2018-04-26T17:23:55.912Z,17.00
2018-04-26T17:26:23.370Z,16.80
2018-04-26T17:28:50.828Z,16.40
2018-04-26T17:31:18.300Z,15.80
2018-04-26T17:33:45.748Z,15.30
2018-04-26T17:36:13.213Z,14.80
2018-04-26T17:38:40.664Z,14.40
2018-04-26T17:41:08.117Z,14.10
2018-04-26T17:43:35.569Z,13.90
2018-04-26T17:46:03.020Z,13.70
2018-04-26T17:48:31.293Z,13.60
2018-04-26T17:50:58.809Z,13.60
2018-04-26T17:53:26.683Z,13.60
2018-04-26T17:55:54.092Z,13.50
2018-04-26T17:58:22.813Z,13.50
2018-04-26T18:00:51.391Z,13.40
2018-04-26T18:03:19.618Z,13.40
2018-04-26T18:05:47.719Z,13.40
2018-04-26T18:08:15.156Z,13.40
2018-04-26T18:10:42.613Z,13.40
2018-04-26T18:13:10.068Z,13.40
2018-04-26T18:15:37.527Z,13.40
2018-04-26T18:18:04.979Z,13.40
2018-04-26T18:20:33.006Z,13.30
2018-04-26T18:23:00.864Z,13.20
2018-04-26T18:25:29.499Z,12.90
2018-04-26T18:27:57.119Z,12.90
2018-04-26T18:30:25.029Z,12.80
2018-04-26T18:32:52.933Z,12.80
2018-04-26T18:35:21.418Z,12.50
2018-04-26T18:37:49.644Z,12.30
2018-04-26T18:40:17.089Z,12.30
2018-04-26T18:42:44.973Z,12.20
2018-04-26T18:45:12.473Z,12.00
2018-04-26T18:47:40.707Z,11.80
2018-04-26T18:50:08.585Z,11.80
2018-04-26T18:52:36.058Z,11.80
2018-04-26T18:55:04.283Z,11.50
2018-04-26T18:57:31.755Z,11.50
2018-04-26T18:59:59.223Z,11.40
2018-04-26T19:02:31.544Z,11.20
2018-04-26T19:04:58.988Z,11.00
2018-04-26T19:07:27.213Z,10.80
2018-04-26T19:09:54.683Z,10.80
2018-04-26T19:12:22.913Z,10.40
2018-04-26T19:14:50.960Z,10.40
2018-04-26T19:17:19.189Z,10.10
2018-04-26T19:19:46.686Z,10.10
2018-04-26T19:22:14.899Z,9.90
2018-04-26T19:24:42.973Z,9.80
2018-04-26T19:27:10.412Z,9.70
2018-04-26T19:29:37.871Z,9.60
2018-04-26T19:32:05.323Z,9.50
2018-04-26T19:34:33.618Z,9.40
2018-04-26T19:37:01.068Z,9.40
2018-04-26T19:39:29.319Z,9.20
2018-04-26T19:41:56.731Z,9.10
2018-04-26T19:44:24.180Z,8.90
2018-04-26T19:46:51.620Z,8.70
2018-04-26T19:49:19.079Z,8.70
2018-04-26T19:51:46.528Z,8.50
2018-04-26T19:54:13.997Z,8.30
2018-04-26T19:56:41.503Z,8.10
2018-04-26T19:59:09.399Z,8.00
2018-04-26T20:01:37.253Z,7.80
2018-04-26T20:04:05.460Z,7.50
2018-04-26T20:06:32.929Z,7.40
2018-04-26T20:09:00.382Z,7.40
2018-04-26T20:11:27.832Z,7.20
2018-04-26T20:13:55.823Z,7.10
2018-04-26T20:16:23.692Z,7.00
2018-04-26T20:18:51.136Z,6.90
2018-04-26T20:21:18.592Z,6.80
2018-04-26T20:23:48.542Z,6.70
2018-04-26T20:26:16.050Z,6.60
2018-04-26T20:28:43.936Z,6.70
2018-04-26T20:31:11.847Z,6.80
2018-04-26T20:33:40.070Z,6.90
2018-04-26T20:36:07.957Z,6.90
2018-04-26T20:38:35.413Z,6.80
2018-04-26T20:41:02.860Z,6.70
2018-04-26T20:43:30.312Z,6.60
2018-04-26T20:45:57.816Z,6.40
2018-04-26T20:48:52.907Z,6.20
2018-04-26T20:51:20.547Z,6.10
2018-04-26T20:53:48.040Z,6.00
2018-04-26T20:56:16.268Z,5.80
2018-04-26T20:58:43.913Z,5.80
2018-04-26T21:01:11.437Z,5.70
2018-04-26T21:03:40.359Z,5.60
2018-04-26T21:06:10.639Z,5.60
2018-04-26T21:08:40.838Z,5.70
2018-04-26T21:11:09.314Z,5.60
2018-04-26T21:13:36.813Z,5.50
2018-04-26T21:16:05.510Z,5.50
2018-04-26T21:18:33.753Z,5.50
2018-04-26T21:21:01.657Z,5.40
2018-04-26T21:23:30.110Z,5.30
2018-04-26T21:25:58.100Z,5.20
2018-04-26T21:28:28.420Z,5.10
2018-04-26T21:30:56.688Z,5.10
2018-04-26T21:33:25.007Z,5.20
2018-04-26T21:35:52.477Z,5.10
2018-04-26T21:38:19.952Z,5.10
2018-04-26T21:40:48.273Z,5.10
2018-04-26T21:43:17.264Z,5.20
2018-04-26T21:45:45.512Z,5.20
2018-04-26T21:48:13.558Z,5.20
2018-04-26T21:50:46.813Z,5.10
2018-04-26T21:53:20.065Z,5.10
2018-04-26T21:55:53.349Z,5.20
2018-04-26T21:58:26.592Z,5.20
2018-04-26T22:00:59.884Z,5.10
2018-04-26T22:03:28.809Z,5.10
2018-04-26T22:05:56.281Z,5.10
2018-04-26T22:08:23.764Z,5.20
2018-04-26T22:10:51.238Z,5.20
2018-04-26T22:13:20.804Z,5.30
2018-04-26T22:15:48.490Z,5.20
2018-04-26T22:18:16.734Z,5.20
2018-04-26T22:20:44.213Z,5.20
2018-04-26T22:23:11.688Z,5.10
2018-04-26T22:25:40.465Z,5.10
2018-04-26T22:28:07.929Z,5.00
2018-04-26T22:30:36.246Z,5.00
2018-04-26T22:33:05.482Z,5.00
2018-04-26T22:35:33.421Z,5.00
2018-04-26T22:38:00.911Z,5.00
2018-04-26T22:40:28.662Z,4.90
2018-04-26T22:42:56.141Z,4.80
2018-04-26T22:45:23.628Z,4.80
2018-04-26T22:47:51.525Z,4.80
2018-04-26T22:50:18.997Z,4.80
2018-04-26T22:52:50.280Z,4.70
2018-04-26T22:55:18.516Z,4.70
2018-04-26T22:57:46.563Z,4.60
2018-04-26T23:00:14.039Z,4.70
2018-04-26T23:02:41.533Z,4.70
2018-04-26T23:05:09.362Z,4.70
2018-04-26T23:07:39.257Z,4.80
2018-04-26T23:10:06.921Z,4.80
2018-04-26T23:12:34.396Z,4.80
2018-04-26T23:15:01.897Z,4.70
2018-04-26T23:17:30.161Z,4.50
2018-04-26T23:19:57.637Z,4.50
2018-04-26T23:22:25.882Z,4.40
2018-04-26T23:24:53.361Z,4.40
2018-04-26T23:27:21.607Z,4.60
2018-04-26T23:29:49.340Z,4.50
2018-04-26T23:32:16.849Z,4.60
2018-04-26T23:34:44.747Z,4.60
2018-04-26T23:37:13.600Z,4.60
2018-04-26T23:39:41.077Z,4.60
2018-04-26T23:42:09.753Z,4.60
2018-04-26T23:44:37.220Z,4.60
2018-04-26T23:47:05.461Z,4.70
2018-04-26T23:49:32.946Z,4.70
2018-04-26T23:52:01.197Z,4.90
2018-04-26T23:54:28.804Z,4.90
2018-04-26T23:56:56.664Z,4.90
2018-04-26T23:59:24.901Z,4.70
